MSC Davos — A8IG3 — position and weather

sailwx.info

Track history (hours):
 
Tides and Currents Weather Stations Pressure Air Temp Water Temp Dewpoint Dewpoint Depression Visibility Wind Speed Wind Dir Waves Ship Positions

MSC Davos

Last reported at 2017-May-25 18:07 UTC. Time now 2017-May-25 22:06 UTC.
Position N 02°05' E 102°07'.

Length 210.9 m; beam 32.3 m; draft 12 m.

Type: Ship (hazmat cat D). MMSI: 636090972.

Date/timePositionNaut miles runAvg speedWind from/ knotsBaromVisibWave heightAir tempDewpointWater temp
2017-May-25 18:07N 02°05' E 102°07'215.0
2017-May-25 18:00N 02°04' E 102°09'914.3
2017-May-25 17:21N 01°58' E 102°16'514.4
2017-May-25 17:00N 01°56' E 102°20'714.1
2017-May-25 16:30N 01°53' E 102°27'713.8
2017-May-25 16:00N 01°50' E 102°33'713.7
2017-May-25 15:29N 01°47' E 102°39'4515.4
2017-May-25 12:32N 01°22' E 103°17'215.7
2017-May-25 12:26N 01°21' E 103°18'716.5
2017-May-25 12:00N 01°16' E 103°23'816.6
2017-May-25 11:30N 01°14' E 103°31'5 9.8
2017-May-25 10:59N 01°18' E 103°33'4 7.9
2017-May-25 10:31N 01°22' E 103°32'0 0.3
2017-May-25 09:56N 01°22' E 103°33'0 0.0
2017-May-25 08:38N 01°22' E 103°33'0 0.0
2017-May-25 08:20N 01°22' E 103°33'0 0.0
2017-May-25 07:56N 01°22' E 103°33'0 0.0
2017-May-25 06:23N 01°22' E 103°33'0 0.0
2017-May-25 05:56N 01°22' E 103°33'0 0.0
2017-May-25 05:26N 01°22' E 103°33'0 0.0
2017-May-25 04:14N 01°22' E 103°33'0 0.0
2017-May-25 03:38N 01°22' E 103°33'0 0.0
2017-May-25 03:05N 01°22' E 103°33'0 0.0
2017-May-25 01:23N 01°22' E 103°33'0 0.0
2017-May-25 00:59N 01°22' E 103°33'0 0.0
2017-May-25 00:08N 01°22' E 103°33'0 0.0
2017-May-24 23:56N 01°22' E 103°33'0 0.0
2017-May-24 22:47N 01°22' E 103°33'0 0.0
2017-May-24 22:23N 01°22' E 103°33'0 0.0
2017-May-24 21:50N 01°22' E 103°33'0 0.0
2017-May-24 20:32N 01°22' E 103°33'0 0.0
2017-May-24 20:29N 01°22' E 103°33'0 0.0
2017-May-24 19:53N 01°22' E 103°33'0 0.0
2017-May-24 19:17N 01°22' E 103°33'0 0.0
2017-May-24 18:41N 01°22' E 103°33'0 0.0
2017-May-24 18:29N 01°22' E 103°33'0 0.0
2017-May-24 17:56N 01°22' E 103°33'0 0.0
2017-May-24 17:29N 01°22' E 103°33'0 0.0
2017-May-24 16:59N 01°22' E 103°33'0 0.0
2017-May-24 16:23N 01°22' E 103°33'0 0.0
2017-May-24 15:17N 01°22' E 103°33'0 0.0
2017-May-24 09:08N 01°22' E 103°33'0 0.0
2017-May-24 07:08N 01°22' E 103°33'0 1.4
2017-May-24 06:52N 01°22' E 103°33'3 7.4
2017-May-24 06:27N 01°19' E 103°33'4 7.5
2017-May-24 05:59N 01°15' E 103°33'0 0.1
2017-May-24 05:16N 01°15' E 103°33'0 0.1
2017-May-24 04:43N 01°15' E 103°33'0 0.0
2017-May-24 04:28N 01°15' E 103°33'0 0.0
2017-May-24 01:52N 01°15' E 103°33'0 0.4
2017-May-24 01:30N 01°15' E 103°33'0 0.7
2017-May-24 00:59N 01°15' E 103°33'0 0.6
2017-May-24 00:30N 01°15' E 103°33'3 6.0
2017-May-23 23:59N 01°12' E 103°35'5 9.8
2017-May-23 23:29N 01°12' E 103°39'610.1
2017-May-23 22:56N 01°15' E 103°44'4 8.1
2017-May-23 22:30N 01°15' E 103°48'0 0.8
2017-May-23 21:59N 01°16' E 103°47'0 0.0
2017-May-23 21:23N 01°16' E 103°47'0 0.0
2017-May-23 20:59N 01°16' E 103°47'0 0.0
2017-May-23 20:26N 01°16' E 103°47'0 0.0
2017-May-23 19:56N 01°16' E 103°47'0 0.0
2017-May-23 19:29N 01°16' E 103°47'0 0.0
2017-May-23 18:56N 01°16' E 103°47'0 0.0
2017-May-23 18:29N 01°16' E 103°47'0 0.0
2017-May-23 17:53N 01°16' E 103°47'0 0.0
2017-May-23 17:14N 01°16' E 103°47'0 0.0
2017-May-23 16:44N 01°16' E 103°47'0 0.0
2017-May-23 16:20N 01°16' E 103°47'0 0.0
2017-May-23 15:56N 01°16' E 103°47'0 0.0
2017-May-23 15:29N 01°16' E 103°47'0 0.0
2017-May-23 14:05N 01°16' E 103°47'0 0.0
2017-May-23 13:26N 01°16' E 103°47'0 0.0
2017-May-23 12:59N 01°16' E 103°47'0 0.0
2017-May-23 12:26N 01°16' E 103°47'0 0.0
2017-May-23 11:56N 01°16' E 103°47'0 0.0
2017-May-23 11:29N 01°16' E 103°47'0 0.0
2017-May-23 10:59N 01°16' E 103°47'0 0.0
2017-May-23 10:29N 01°16' E 103°47'0 0.0
2017-May-23 09:56N 01°16' E 103°47'0 0.0
2017-May-23 09:26N 01°16' E 103°47'0 0.0
2017-May-23 08:59N 01°16' E 103°47'0 0.0
2017-May-23 08:29N 01°16' E 103°47'0 0.0
2017-May-23 07:59N 01°16' E 103°47'0 0.0
2017-May-23 07:20N 01°16' E 103°47'0 0.0
2017-May-23 06:59N 01°16' E 103°47'0 0.0
2017-May-23 06:17N 01°16' E 103°47'0 0.0
2017-May-23 05:35N 01°16' E 103°47'0 0.0
2017-May-23 05:17N 01°16' E 103°47'0 0.0
2017-May-23 04:59N 01°16' E 103°47'0 0.0
2017-May-23 04:28N 01°16' E 103°47'0 0.8
2017-May-23 04:00N 01°15' E 103°48'1 1.4
2017-May-23 03:30N 01°15' E 103°47'2 4.8
2017-May-23 03:01N 01°13' E 103°48'611.2
2017-May-23 02:30N 01°14' E 103°54'3 6.7
2017-May-23 02:00N 01°15' E 103°57'4 8.4
2017-May-23 01:30N 01°16' E 104°01'4 8.4
2017-May-23 00:59N 01°17' E 104°06'4 8.5
2017-May-23 00:30N 01°17' E 104°09'13 8.5
2017-May-22 22:59N 01°21' E 104°22'  
2017-May-16 05:04N 01°15' E 104°02'116.5
2017-May-16 05:00N 01°15' E 104°01'815.9
2017-May-16 04:30N 01°12' E 103°53'611.8
2017-May-16 04:01N 01°13' E 103°48'2 4.9
2017-May-16 03:30N 01°16' E 103°47'0 0.0
2017-May-16 03:00N 01°16' E 103°47'0 0.0
2017-May-16 02:30N 01°16' E 103°47'0 0.0
2017-May-16 02:00N 01°16' E 103°47'0 0.0
2017-May-16 01:30N 01°16' E 103°47'0 0.0
2017-May-16 00:57N 01°16' E 103°47'0 0.0
2017-May-16 00:30N 01°16' E 103°47'0 0.0
2017-May-15 23:57N 01°16' E 103°47'0 0.0
2017-May-15 23:30N 01°16' E 103°47'0 0.0
2017-May-15 23:00N 01°16' E 103°47'0 0.0
2017-May-15 22:30N 01°16' E 103°47'0 0.0
2017-May-15 22:00N 01°16' E 103°47'0 0.0
2017-May-15 21:30N 01°16' E 103°47'0 0.0
2017-May-15 21:00N 01°16' E 103°47'0 0.0
2017-May-15 20:30N 01°16' E 103°47'0 0.0
2017-May-15 19:57N 01°16' E 103°47'0 0.0
2017-May-15 19:30N 01°16' E 103°47'0 0.0
2017-May-15 19:00N 01°16' E 103°47'0 0.0
2017-May-15 18:30N 01°16' E 103°47'  
Track history (hours):
 
Tides and Currents Weather Stations Pressure Air Temp Water Temp Dewpoint Dewpoint Depression Visibility Wind Speed Wind Dir Waves Ship Positions

MSC Davos

Last reported at 2017-May-25 18:07 UTC. Time now 2017-May-25 22:06 UTC.
Position N 02°05' E 102°07'.

Length 210.9 m; beam 32.3 m; draft 12 m.

Type: Ship (hazmat cat D). MMSI: 636090972.

Date/timePositionNaut miles runAvg speedWind from/ knotsBaromVisibWave heightAir tempDewpointWater temp
2017-May-25 18:07N 02°05' E 102°07'215.0
2017-May-25 18:00N 02°04' E 102°09'914.3
2017-May-25 17:21N 01°58' E 102°16'514.4
2017-May-25 17:00N 01°56' E 102°20'714.1
2017-May-25 16:30N 01°53' E 102°27'713.8
2017-May-25 16:00N 01°50' E 102°33'713.7
2017-May-25 15:29N 01°47' E 102°39'4515.4
2017-May-25 12:32N 01°22' E 103°17'215.7
2017-May-25 12:26N 01°21' E 103°18'716.5
2017-May-25 12:00N 01°16' E 103°23'816.6
2017-May-25 11:30N 01°14' E 103°31'5 9.8
2017-May-25 10:59N 01°18' E 103°33'4 7.9
2017-May-25 10:31N 01°22' E 103°32'0 0.3
2017-May-25 09:56N 01°22' E 103°33'0 0.0
2017-May-25 08:38N 01°22' E 103°33'0 0.0
2017-May-25 08:20N 01°22' E 103°33'0 0.0
2017-May-25 07:56N 01°22' E 103°33'0 0.0
2017-May-25 06:23N 01°22' E 103°33'0 0.0
2017-May-25 05:56N 01°22' E 103°33'0 0.0
2017-May-25 05:26N 01°22' E 103°33'0 0.0
2017-May-25 04:14N 01°22' E 103°33'0 0.0
2017-May-25 03:38N 01°22' E 103°33'0 0.0
2017-May-25 03:05N 01°22' E 103°33'0 0.0
2017-May-25 01:23N 01°22' E 103°33'0 0.0
2017-May-25 00:59N 01°22' E 103°33'0 0.0
2017-May-25 00:08N 01°22' E 103°33'0 0.0
2017-May-24 23:56N 01°22' E 103°33'0 0.0
2017-May-24 22:47N 01°22' E 103°33'0 0.0
2017-May-24 22:23N 01°22' E 103°33'0 0.0
2017-May-24 21:50N 01°22' E 103°33'0 0.0
2017-May-24 20:32N 01°22' E 103°33'0 0.0
2017-May-24 20:29N 01°22' E 103°33'0 0.0
2017-May-24 19:53N 01°22' E 103°33'0 0.0
2017-May-24 19:17N 01°22' E 103°33'0 0.0
2017-May-24 18:41N 01°22' E 103°33'0 0.0
2017-May-24 18:29N 01°22' E 103°33'0 0.0
2017-May-24 17:56N 01°22' E 103°33'0 0.0
2017-May-24 17:29N 01°22' E 103°33'0 0.0
2017-May-24 16:59N 01°22' E 103°33'0 0.0
2017-May-24 16:23N 01°22' E 103°33'0 0.0
2017-May-24 15:17N 01°22' E 103°33'0 0.0
2017-May-24 09:08N 01°22' E 103°33'0 0.0
2017-May-24 07:08N 01°22' E 103°33'0 1.4
2017-May-24 06:52N 01°22' E 103°33'3 7.4
2017-May-24 06:27N 01°19' E 103°33'4 7.5
2017-May-24 05:59N 01°15' E 103°33'0 0.1
2017-May-24 05:16N 01°15' E 103°33'0 0.1
2017-May-24 04:43N 01°15' E 103°33'0 0.0
2017-May-24 04:28N 01°15' E 103°33'0 0.0
2017-May-24 01:52N 01°15' E 103°33'0 0.4
2017-May-24 01:30N 01°15' E 103°33'0 0.7
2017-May-24 00:59N 01°15' E 103°33'0 0.6
2017-May-24 00:30N 01°15' E 103°33'3 6.0
2017-May-23 23:59N 01°12' E 103°35'5 9.8
2017-May-23 23:29N 01°12' E 103°39'610.1
2017-May-23 22:56N 01°15' E 103°44'4 8.1
2017-May-23 22:30N 01°15' E 103°48'0 0.8
2017-May-23 21:59N 01°16' E 103°47'0 0.0
2017-May-23 21:23N 01°16' E 103°47'0 0.0
2017-May-23 20:59N 01°16' E 103°47'0 0.0
2017-May-23 20:26N 01°16' E 103°47'0 0.0
2017-May-23 19:56N 01°16' E 103°47'0 0.0
2017-May-23 19:29N 01°16' E 103°47'0 0.0
2017-May-23 18:56N 01°16' E 103°47'0 0.0
2017-May-23 18:29N 01°16' E 103°47'0 0.0
2017-May-23 17:53N 01°16' E 103°47'0 0.0
2017-May-23 17:14N 01°16' E 103°47'0 0.0
2017-May-23 16:44N 01°16' E 103°47'0 0.0
2017-May-23 16:20N 01°16' E 103°47'0 0.0
2017-May-23 15:56N 01°16' E 103°47'0 0.0
2017-May-23 15:29N 01°16' E 103°47'0 0.0
2017-May-23 14:05N 01°16' E 103°47'0 0.0
2017-May-23 13:26N 01°16' E 103°47'0 0.0
2017-May-23 12:59N 01°16' E 103°47'0 0.0
2017-May-23 12:26N 01°16' E 103°47'0 0.0
2017-May-23 11:56N 01°16' E 103°47'0 0.0
2017-May-23 11:29N 01°16' E 103°47'0 0.0
2017-May-23 10:59N 01°16' E 103°47'0 0.0
2017-May-23 10:29N 01°16' E 103°47'0 0.0
2017-May-23 09:56N 01°16' E 103°47'0 0.0
2017-May-23 09:26N 01°16' E 103°47'0 0.0
2017-May-23 08:59N 01°16' E 103°47'0 0.0
2017-May-23 08:29N 01°16' E 103°47'0 0.0
2017-May-23 07:59N 01°16' E 103°47'0 0.0
2017-May-23 07:20N 01°16' E 103°47'0 0.0
2017-May-23 06:59N 01°16' E 103°47'0 0.0
2017-May-23 06:17N 01°16' E 103°47'0 0.0
2017-May-23 05:35N 01°16' E 103°47'0 0.0
2017-May-23 05:17N 01°16' E 103°47'0 0.0
2017-May-23 04:59N 01°16' E 103°47'0 0.0
2017-May-23 04:28N 01°16' E 103°47'0 0.8
2017-May-23 04:00N 01°15' E 103°48'1 1.4
2017-May-23 03:30N 01°15' E 103°47'2 4.8
2017-May-23 03:01N 01°13' E 103°48'611.2
2017-May-23 02:30N 01°14' E 103°54'3 6.7
2017-May-23 02:00N 01°15' E 103°57'4 8.4
2017-May-23 01:30N 01°16' E 104°01'4 8.4
2017-May-23 00:59N 01°17' E 104°06'4 8.5
2017-May-23 00:30N 01°17' E 104°09'13 8.5
2017-May-22 22:59N 01°21' E 104°22'  
2017-May-16 05:04N 01°15' E 104°02'116.5
2017-May-16 05:00N 01°15' E 104°01'815.9
2017-May-16 04:30N 01°12' E 103°53'611.8
2017-May-16 04:01N 01°13' E 103°48'2 4.9
2017-May-16 03:30N 01°16' E 103°47'0 0.0
2017-May-16 03:00N 01°16' E 103°47'0 0.0
2017-May-16 02:30N 01°16' E 103°47'0 0.0
2017-May-16 02:00N 01°16' E 103°47'0 0.0
2017-May-16 01:30N 01°16' E 103°47'0 0.0
2017-May-16 00:57N 01°16' E 103°47'0 0.0
2017-May-16 00:30N 01°16' E 103°47'0 0.0
2017-May-15 23:57N 01°16' E 103°47'0 0.0
2017-May-15 23:30N 01°16' E 103°47'0 0.0
2017-May-15 23:00N 01°16' E 103°47'0 0.0
2017-May-15 22:30N 01°16' E 103°47'0 0.0
2017-May-15 22:00N 01°16' E 103°47'0 0.0
2017-May-15 21:30N 01°16' E 103°47'0 0.0
2017-May-15 21:00N 01°16' E 103°47'0 0.0
2017-May-15 20:30N 01°16' E 103°47'0 0.0
2017-May-15 19:57N 01°16' E 103°47'0 0.0
2017-May-15 19:30N 01°16' E 103°47'0 0.0
2017-May-15 19:00N 01°16' E 103°47'0 0.0
2017-May-15 18:30N 01°16' E 103°47'  

Dump ship's entire track history